Аэропорт: Звартноц. Ереван

ICAO: UDYZ

METAR:
2019/05/26 14:00
UDYZ 261400Z 26008KT 9999 FEW040CB 30/M00 Q1009 R09/000070 NOSIG
METAR:
2019/05/26 12:00
TAF UDYZ 261102Z 2612/2712 04006KT 9999 FEW040 
      TEMPO 2612/2619 VRB16G26KT -TSRA SCT040CB